Terminal Aerodrome Forecast
Issued by NWS

Home | Current Version | Previous Version | Text Only | Print | Product List | Glossary On
Versions: 1 2 3 4 5 6 7 8 9 10 11 12 13 14 15 16 17 18 19 20 21 22 23 24 25 26 27 28
000
FTUS43 KDDC 301636 AAD
TAFGCK
TAF AMD
KGCK 301636Z 3017/0112 34035G45KT 1/4SM +SN OVC005
     FM301900 34035G45KT 1/2SM SN OVC006
     FM302300 32031KT P6SM OVC015
     FM010500 30012KT P6SM FEW060=

USA.gov is the U.S. government's official web portal to all federal, state and local government web resources and services.